sensor_id;sensor_type;location;lat;lon;timestamp;P1;durP1;ratioP1;P2;durP2;ratioP2
67640;SDS011;54434;50.096;20.082;2022-09-27T00:00:58;26.10;;;17.70;;
67640;SDS011;54434;50.096;20.082;2022-09-27T00:03:39;24.50;;;16.90;;
67640;SDS011;54434;50.096;20.082;2022-09-27T00:06:21;31.50;;;17.40;;
67640;SDS011;54434;50.096;20.082;2022-09-27T00:09:00;24.40;;;17.20;;
67640;SDS011;54434;50.096;20.082;2022-09-27T00:11:39;32.50;;;18.10;;
67640;SDS011;54434;50.096;20.082;2022-09-27T00:14:17;36.10;;;17.50;;
67640;SDS011;54434;50.096;20.082;2022-09-27T00:16:53;47.00;;;18.80;;
67640;SDS011;54434;50.096;20.082;2022-09-27T00:19:30;40.00;;;18.90;;
67640;SDS011;54434;50.096;20.082;2022-09-27T00:22:06;42.90;;;18.50;;
67640;SDS011;54434;50.096;20.082;2022-09-27T00:24:43;31.40;;;18.70;;
67640;SDS011;54434;50.096;20.082;2022-09-27T00:27:19;33.40;;;18.70;;
67640;SDS011;54434;50.096;20.082;2022-09-27T00:29:56;32.80;;;17.50;;
67640;SDS011;54434;50.096;20.082;2022-09-27T00:32:33;33.00;;;16.80;;
67640;SDS011;54434;50.096;20.082;2022-09-27T00:35:11;27.60;;;17.00;;
67640;SDS011;54434;50.096;20.082;2022-09-27T00:37:51;33.40;;;17.30;;
67640;SDS011;54434;50.096;20.082;2022-09-27T00:40:28;31.00;;;16.60;;
67640;SDS011;54434;50.096;20.082;2022-09-27T00:43:12;25.60;;;17.80;;
67640;SDS011;54434;50.096;20.082;2022-09-27T00:45:53;27.30;;;16.90;;
67640;SDS011;54434;50.096;20.082;2022-09-27T00:48:37;27.60;;;17.30;;
67640;SDS011;54434;50.096;20.082;2022-09-27T00:51:13;26.40;;;16.80;;
67640;SDS011;54434;50.096;20.082;2022-09-27T00:53:54;23.70;;;16.40;;
67640;SDS011;54434;50.096;20.082;2022-09-27T00:56:32;27.80;;;15.70;;
67640;SDS011;54434;50.096;20.082;2022-09-27T00:59:13;26.30;;;15.50;;
67640;SDS011;54434;50.096;20.082;2022-09-27T01:01:54;29.90;;;16.00;;
67640;SDS011;54434;50.096;20.082;2022-09-27T01:04:31;27.90;;;16.30;;
67640;SDS011;54434;50.096;20.082;2022-09-27T01:07:10;26.00;;;15.90;;
67640;SDS011;54434;50.096;20.082;2022-09-27T01:09:47;30.80;;;16.40;;
67640;SDS011;54434;50.096;20.082;2022-09-27T01:12:33;28.60;;;16.50;;
67640;SDS011;54434;50.096;20.082;2022-09-27T01:15:24;24.90;;;15.30;;
67640;SDS011;54434;50.096;20.082;2022-09-27T01:18:25;23.30;;;14.80;;
67640;SDS011;54434;50.096;20.082;2022-09-27T01:21:34;22.50;;;14.30;;
67640;SDS011;54434;50.096;20.082;2022-09-27T01:24:38;22.00;;;14.60;;
67640;SDS011;54434;50.096;20.082;2022-09-27T01:31:02;20.40;;;13.60;;
67640;SDS011;54434;50.096;20.082;2022-09-27T01:33:52;22.70;;;14.30;;
67640;SDS011;54434;50.096;20.082;2022-09-27T01:36:45;21.50;;;14.40;;
67640;SDS011;54434;50.096;20.082;2022-09-27T01:42:38;18.30;;;12.80;;
67640;SDS011;54434;50.096;20.082;2022-09-27T01:45:27;20.20;;;12.80;;
67640;SDS011;54434;50.096;20.082;2022-09-27T01:48:17;19.30;;;13.20;;
67640;SDS011;54434;50.096;20.082;2022-09-27T01:51:04;21.40;;;13.90;;
67640;SDS011;54434;50.096;20.082;2022-09-27T01:53:47;29.50;;;13.40;;
67640;SDS011;54434;50.096;20.082;2022-09-27T01:56:55;22.50;;;12.80;;
67640;SDS011;54434;50.096;20.082;2022-09-27T01:59:43;20.10;;;12.90;;
67640;SDS011;54434;50.096;20.082;2022-09-27T02:02:45;19.70;;;12.70;;
67640;SDS011;54434;50.096;20.082;2022-09-27T02:05:39;20.60;;;12.40;;
67640;SDS011;54434;50.096;20.082;2022-09-27T02:09:11;21.00;;;12.50;;
67640;SDS011;54434;50.096;20.082;2022-09-27T02:12:14;16.60;;;11.90;;
67640;SDS011;54434;50.096;20.082;2022-09-27T02:15:00;19.60;;;12.70;;
67640;SDS011;54434;50.096;20.082;2022-09-27T02:17:43;23.70;;;12.70;;
67640;SDS011;54434;50.096;20.082;2022-09-27T02:20:32;18.40;;;12.10;;
67640;SDS011;54434;50.096;20.082;2022-09-27T02:23:20;21.30;;;12.60;;
67640;SDS011;54434;50.096;20.082;2022-09-27T02:26:11;19.80;;;12.60;;
67640;SDS011;54434;50.096;20.082;2022-09-27T02:28:58;18.40;;;12.50;;
67640;SDS011;54434;50.096;20.082;2022-09-27T02:31:46;19.50;;;11.90;;
67640;SDS011;54434;50.096;20.082;2022-09-27T02:34:26;19.60;;;12.10;;
67640;SDS011;54434;50.096;20.082;2022-09-27T02:37:07;18.10;;;12.20;;
67640;SDS011;54434;50.096;20.082;2022-09-27T02:39:44;16.80;;;11.50;;
67640;SDS011;54434;50.096;20.082;2022-09-27T02:42:20;17.80;;;12.30;;
67640;SDS011;54434;50.096;20.082;2022-09-27T02:44:58;22.00;;;12.70;;
67640;SDS011;54434;50.096;20.082;2022-09-27T02:47:51;25.50;;;13.60;;
67640;SDS011;54434;50.096;20.082;2022-09-27T02:51:22;20.30;;;12.40;;
67640;SDS011;54434;50.096;20.082;2022-09-27T02:54:18;22.90;;;12.50;;
67640;SDS011;54434;50.096;20.082;2022-09-27T02:57:25;21.30;;;11.60;;
67640;SDS011;54434;50.096;20.082;2022-09-27T03:00:38;18.10;;;10.80;;
67640;SDS011;54434;50.096;20.082;2022-09-27T03:03:45;17.30;;;11.30;;
67640;SDS011;54434;50.096;20.082;2022-09-27T03:06:28;18.30;;;11.30;;
67640;SDS011;54434;50.096;20.082;2022-09-27T03:09:06;23.40;;;12.60;;
67640;SDS011;54434;50.096;20.082;2022-09-27T03:11:51;20.10;;;11.40;;
67640;SDS011;54434;50.096;20.082;2022-09-27T03:14:27;19.10;;;11.30;;
67640;SDS011;54434;50.096;20.082;2022-09-27T03:17:14;17.70;;;11.20;;
67640;SDS011;54434;50.096;20.082;2022-09-27T03:20:22;16.60;;;11.20;;
67640;SDS011;54434;50.096;20.082;2022-09-27T03:23:22;15.80;;;10.40;;
67640;SDS011;54434;50.096;20.082;2022-09-27T03:25:59;14.90;;;10.50;;
67640;SDS011;54434;50.096;20.082;2022-09-27T03:28:35;14.80;;;10.40;;
67640;SDS011;54434;50.096;20.082;2022-09-27T03:31:12;16.60;;;10.90;;
67640;SDS011;54434;50.096;20.082;2022-09-27T03:34:06;18.30;;;11.30;;
67640;SDS011;54434;50.096;20.082;2022-09-27T03:36:43;17.80;;;11.40;;
67640;SDS011;54434;50.096;20.082;2022-09-27T03:39:20;17.40;;;11.80;;
67640;SDS011;54434;50.096;20.082;2022-09-27T03:41:57;15.60;;;11.00;;
67640;SDS011;54434;50.096;20.082;2022-09-27T03:44:33;18.00;;;11.10;;
67640;SDS011;54434;50.096;20.082;2022-09-27T03:47:10;17.30;;;11.40;;
67640;SDS011;54434;50.096;20.082;2022-09-27T03:49:48;16.80;;;11.40;;
67640;SDS011;54434;50.096;20.082;2022-09-27T03:52:26;18.20;;;11.50;;
67640;SDS011;54434;50.096;20.082;2022-09-27T03:55:03;19.40;;;11.30;;
67640;SDS011;54434;50.096;20.082;2022-09-27T03:57:45;20.00;;;12.50;;
67640;SDS011;54434;50.096;20.082;2022-09-27T04:00:27;17.60;;;11.40;;
67640;SDS011;54434;50.096;20.082;2022-09-27T04:03:05;16.80;;;11.60;;
67640;SDS011;54434;50.096;20.082;2022-09-27T04:06:03;17.20;;;11.30;;
67640;SDS011;54434;50.096;20.082;2022-09-27T04:08:46;20.30;;;11.40;;
67640;SDS011;54434;50.096;20.082;2022-09-27T04:11:23;18.60;;;11.30;;
67640;SDS011;54434;50.096;20.082;2022-09-27T04:14:00;16.50;;;10.70;;
67640;SDS011;54434;50.096;20.082;2022-09-27T04:16:42;17.90;;;10.50;;
67640;SDS011;54434;50.096;20.082;2022-09-27T04:19:38;16.70;;;9.80;;
67640;SDS011;54434;50.096;20.082;2022-09-27T04:22:16;15.10;;;10.20;;
67640;SDS011;54434;50.096;20.082;2022-09-27T04:24:53;17.30;;;9.60;;
67640;SDS011;54434;50.096;20.082;2022-09-27T04:27:42;14.30;;;9.60;;
67640;SDS011;54434;50.096;20.082;2022-09-27T04:30:21;21.20;;;10.20;;
67640;SDS011;54434;50.096;20.082;2022-09-27T04:33:39;12.20;;;9.00;;
67640;SDS011;54434;50.096;20.082;2022-09-27T04:37:06;14.80;;;9.30;;
67640;SDS011;54434;50.096;20.082;2022-09-27T04:39:47;17.50;;;9.90;;
67640;SDS011;54434;50.096;20.082;2022-09-27T04:42:24;15.60;;;9.80;;
67640;SDS011;54434;50.096;20.082;2022-09-27T04:45:01;15.60;;;9.50;;
67640;SDS011;54434;50.096;20.082;2022-09-27T04:47:40;16.60;;;9.50;;
67640;SDS011;54434;50.096;20.082;2022-09-27T04:50:18;22.00;;;9.90;;
67640;SDS011;54434;50.096;20.082;2022-09-27T04:53:07;15.40;;;9.60;;
67640;SDS011;54434;50.096;20.082;2022-09-27T04:55:50;16.60;;;10.30;;
67640;SDS011;54434;50.096;20.082;2022-09-27T04:58:28;17.50;;;10.90;;
67640;SDS011;54434;50.096;20.082;2022-09-27T05:01:07;18.80;;;10.00;;
67640;SDS011;54434;50.096;20.082;2022-09-27T05:04:02;15.60;;;9.40;;
67640;SDS011;54434;50.096;20.082;2022-09-27T05:06:40;23.30;;;10.50;;
67640;SDS011;54434;50.096;20.082;2022-09-27T05:09:30;14.30;;;10.20;;
67640;SDS011;54434;50.096;20.082;2022-09-27T05:12:07;20.50;;;10.30;;
67640;SDS011;54434;50.096;20.082;2022-09-27T05:15:11;15.60;;;9.90;;
67640;SDS011;54434;50.096;20.082;2022-09-27T05:18:07;20.10;;;10.60;;
67640;SDS011;54434;50.096;20.082;2022-09-27T05:21:06;20.20;;;10.60;;
67640;SDS011;54434;50.096;20.082;2022-09-27T05:23:48;21.10;;;9.70;;
67640;SDS011;54434;50.096;20.082;2022-09-27T05:26:24;19.50;;;9.70;;
67640;SDS011;54434;50.096;20.082;2022-09-27T05:29:01;20.90;;;10.50;;
67640;SDS011;54434;50.096;20.082;2022-09-27T05:31:38;18.30;;;9.40;;
67640;SDS011;54434;50.096;20.082;2022-09-27T05:34:15;18.30;;;9.40;;
67640;SDS011;54434;50.096;20.082;2022-09-27T05:37:02;17.60;;;8.80;;
67640;SDS011;54434;50.096;20.082;2022-09-27T05:39:42;19.70;;;9.60;;
67640;SDS011;54434;50.096;20.082;2022-09-27T05:42:19;14.80;;;8.70;;
67640;SDS011;54434;50.096;20.082;2022-09-27T05:44:55;15.00;;;8.90;;
67640;SDS011;54434;50.096;20.082;2022-09-27T05:47:33;21.00;;;9.20;;
67640;SDS011;54434;50.096;20.082;2022-09-27T05:50:10;16.60;;;9.40;;
67640;SDS011;54434;50.096;20.082;2022-09-27T05:52:46;14.40;;;8.70;;
67640;SDS011;54434;50.096;20.082;2022-09-27T05:55:23;15.70;;;8.90;;
67640;SDS011;54434;50.096;20.082;2022-09-27T05:58:02;16.20;;;8.90;;
67640;SDS011;54434;50.096;20.082;2022-09-27T06:03:45;12.70;;;7.30;;
67640;SDS011;54434;50.096;20.082;2022-09-27T06:06:55;11.80;;;8.10;;
67640;SDS011;54434;50.096;20.082;2022-09-27T06:09:32;17.10;;;8.60;;
67640;SDS011;54434;50.096;20.082;2022-09-27T06:12:08;12.30;;;8.10;;
67640;SDS011;54434;50.096;20.082;2022-09-27T06:14:45;12.50;;;7.90;;
67640;SDS011;54434;50.096;20.082;2022-09-27T06:17:35;11.70;;;7.60;;
67640;SDS011;54434;50.096;20.082;2022-09-27T06:20:19;12.80;;;8.60;;
67640;SDS011;54434;50.096;20.082;2022-09-27T06:22:56;12.00;;;8.20;;
67640;SDS011;54434;50.096;20.082;2022-09-27T06:25:40;12.80;;;8.40;;
67640;SDS011;54434;50.096;20.082;2022-09-27T06:28:24;11.70;;;8.20;;
67640;SDS011;54434;50.096;20.082;2022-09-27T06:31:03;15.10;;;9.50;;
67640;SDS011;54434;50.096;20.082;2022-09-27T06:33:58;11.60;;;8.40;;
67640;SDS011;54434;50.096;20.082;2022-09-27T06:36:35;13.50;;;9.10;;
67640;SDS011;54434;50.096;20.082;2022-09-27T06:39:11;16.30;;;9.00;;
67640;SDS011;54434;50.096;20.082;2022-09-27T06:41:59;11.80;;;8.20;;
67640;SDS011;54434;50.096;20.082;2022-09-27T06:44:55;12.90;;;8.50;;
67640;SDS011;54434;50.096;20.082;2022-09-27T06:47:49;13.30;;;8.50;;
67640;SDS011;54434;50.096;20.082;2022-09-27T06:50:38;10.90;;;7.40;;
67640;SDS011;54434;50.096;20.082;2022-09-27T06:53:17;12.80;;;8.60;;
67640;SDS011;54434;50.096;20.082;2022-09-27T06:56:00;14.60;;;8.30;;
67640;SDS011;54434;50.096;20.082;2022-09-27T06:58:47;13.20;;;8.10;;
67640;SDS011;54434;50.096;20.082;2022-09-27T07:02:22;11.90;;;8.10;;
67640;SDS011;54434;50.096;20.082;2022-09-27T07:05:52;11.70;;;7.60;;
67640;SDS011;54434;50.096;20.082;2022-09-27T07:08:47;14.10;;;8.50;;
67640;SDS011;54434;50.096;20.082;2022-09-27T07:11:27;11.20;;;8.40;;
67640;SDS011;54434;50.096;20.082;2022-09-27T07:14:03;10.50;;;7.80;;
67640;SDS011;54434;50.096;20.082;2022-09-27T07:16:40;11.60;;;7.60;;
67640;SDS011;54434;50.096;20.082;2022-09-27T07:19:18;10.00;;;7.30;;
67640;SDS011;54434;50.096;20.082;2022-09-27T07:21:56;11.70;;;7.50;;
67640;SDS011;54434;50.096;20.082;2022-09-27T07:24:34;12.00;;;8.00;;
67640;SDS011;54434;50.096;20.082;2022-09-27T07:27:11;10.50;;;7.40;;
67640;SDS011;54434;50.096;20.082;2022-09-27T07:29:49;10.20;;;7.30;;
67640;SDS011;54434;50.096;20.082;2022-09-27T07:32:25;9.90;;;7.10;;
67640;SDS011;54434;50.096;20.082;2022-09-27T07:35:02;10.80;;;6.60;;
67640;SDS011;54434;50.096;20.082;2022-09-27T07:37:40;9.80;;;7.20;;
67640;SDS011;54434;50.096;20.082;2022-09-27T07:40:19;10.00;;;7.20;;
67640;SDS011;54434;50.096;20.082;2022-09-27T07:42:58;10.50;;;7.20;;
67640;SDS011;54434;50.096;20.082;2022-09-27T07:45:35;10.30;;;7.30;;
67640;SDS011;54434;50.096;20.082;2022-09-27T07:51:12;10.70;;;7.30;;
67640;SDS011;54434;50.096;20.082;2022-09-27T07:54:04;11.80;;;7.50;;
67640;SDS011;54434;50.096;20.082;2022-09-27T07:57:25;12.10;;;7.20;;
67640;SDS011;54434;50.096;20.082;2022-09-27T08:00:07;11.80;;;8.40;;
67640;SDS011;54434;50.096;20.082;2022-09-27T08:02:48;10.20;;;7.60;;
67640;SDS011;54434;50.096;20.082;2022-09-27T08:05:25;10.70;;;7.30;;
67640;SDS011;54434;50.096;20.082;2022-09-27T08:08:03;10.30;;;7.50;;
67640;SDS011;54434;50.096;20.082;2022-09-27T08:10:40;11.30;;;8.60;;
67640;SDS011;54434;50.096;20.082;2022-09-27T08:13:19;12.20;;;8.70;;
67640;SDS011;54434;50.096;20.082;2022-09-27T08:16:03;13.00;;;9.20;;
67640;SDS011;54434;50.096;20.082;2022-09-27T08:19:01;14.30;;;8.90;;
67640;SDS011;54434;50.096;20.082;2022-09-27T08:21:53;11.90;;;9.00;;
67640;SDS011;54434;50.096;20.082;2022-09-27T08:24:40;12.60;;;9.20;;
67640;SDS011;54434;50.096;20.082;2022-09-27T08:27:28;11.40;;;9.10;;
67640;SDS011;54434;50.096;20.082;2022-09-27T08:30:10;11.80;;;9.10;;
67640;SDS011;54434;50.096;20.082;2022-09-27T08:32:47;12.70;;;9.10;;
67640;SDS011;54434;50.096;20.082;2022-09-27T08:35:29;12.00;;;9.30;;
67640;SDS011;54434;50.096;20.082;2022-09-27T08:38:08;11.50;;;9.00;;
67640;SDS011;54434;50.096;20.082;2022-09-27T08:40:52;11.90;;;8.70;;
67640;SDS011;54434;50.096;20.082;2022-09-27T08:43:40;12.30;;;8.30;;
67640;SDS011;54434;50.096;20.082;2022-09-27T08:46:31;9.50;;;7.50;;
67640;SDS011;54434;50.096;20.082;2022-09-27T08:49:25;9.60;;;7.30;;
67640;SDS011;54434;50.096;20.082;2022-09-27T08:52:14;9.60;;;7.70;;
67640;SDS011;54434;50.096;20.082;2022-09-27T08:55:00;11.60;;;7.70;;
67640;SDS011;54434;50.096;20.082;2022-09-27T08:57:45;10.40;;;7.50;;
67640;SDS011;54434;50.096;20.082;2022-09-27T09:00:30;10.50;;;7.80;;
67640;SDS011;54434;50.096;20.082;2022-09-27T09:03:15;10.30;;;7.40;;
67640;SDS011;54434;50.096;20.082;2022-09-27T09:06:09;10.80;;;8.10;;
67640;SDS011;54434;50.096;20.082;2022-09-27T09:09:04;10.30;;;7.70;;
67640;SDS011;54434;50.096;20.082;2022-09-27T09:12:25;11.50;;;7.90;;
67640;SDS011;54434;50.096;20.082;2022-09-27T09:15:41;14.20;;;8.30;;
67640;SDS011;54434;50.096;20.082;2022-09-27T09:18:54;9.80;;;7.70;;
67640;SDS011;54434;50.096;20.082;2022-09-27T09:22:52;11.20;;;8.20;;
67640;SDS011;54434;50.096;20.082;2022-09-27T09:25:49;12.90;;;9.10;;
67640;SDS011;54434;50.096;20.082;2022-09-27T09:28:42;15.10;;;9.80;;
67640;SDS011;54434;50.096;20.082;2022-09-27T09:31:37;12.70;;;9.90;;
67640;SDS011;54434;50.096;20.082;2022-09-27T09:34:22;13.10;;;8.70;;
67640;SDS011;54434;50.096;20.082;2022-09-27T09:37:03;13.80;;;10.10;;
67640;SDS011;54434;50.096;20.082;2022-09-27T09:39:52;11.90;;;9.10;;
67640;SDS011;54434;50.096;20.082;2022-09-27T09:42:36;12.30;;;9.50;;
67640;SDS011;54434;50.096;20.082;2022-09-27T09:45:21;12.10;;;9.60;;
67640;SDS011;54434;50.096;20.082;2022-09-27T09:48:07;14.10;;;10.20;;
67640;SDS011;54434;50.096;20.082;2022-09-27T09:50:52;11.10;;;9.00;;
67640;SDS011;54434;50.096;20.082;2022-09-27T09:53:40;12.50;;;8.90;;
67640;SDS011;54434;50.096;20.082;2022-09-27T09:56:30;13.40;;;9.00;;
67640;SDS011;54434;50.096;20.082;2022-09-27T09:59:16;12.90;;;9.10;;
67640;SDS011;54434;50.096;20.082;2022-09-27T10:02:16;11.70;;;8.10;;
67640;SDS011;54434;50.096;20.082;2022-09-27T10:05:03;9.80;;;7.80;;
67640;SDS011;54434;50.096;20.082;2022-09-27T10:07:41;11.80;;;9.00;;
67640;SDS011;54434;50.096;20.082;2022-09-27T10:10:21;10.50;;;8.20;;
67640;SDS011;54434;50.096;20.082;2022-09-27T10:13:41;11.10;;;8.80;;
67640;SDS011;54434;50.096;20.082;2022-09-27T10:16:19;13.20;;;9.40;;
67640;SDS011;54434;50.096;20.082;2022-09-27T10:19:03;11.40;;;8.80;;
67640;SDS011;54434;50.096;20.082;2022-09-27T10:21:43;12.10;;;8.50;;
67640;SDS011;54434;50.096;20.082;2022-09-27T10:24:21;10.60;;;7.40;;
67640;SDS011;54434;50.096;20.082;2022-09-27T10:27:04;10.40;;;8.20;;
67640;SDS011;54434;50.096;20.082;2022-09-27T10:29:41;9.60;;;7.80;;
67640;SDS011;54434;50.096;20.082;2022-09-27T10:32:25;10.70;;;7.80;;
67640;SDS011;54434;50.096;20.082;2022-09-27T10:35:36;11.10;;;7.30;;
67640;SDS011;54434;50.096;20.082;2022-09-27T10:38:28;9.30;;;6.30;;
67640;SDS011;54434;50.096;20.082;2022-09-27T10:41:27;9.10;;;7.00;;
67640;SDS011;54434;50.096;20.082;2022-09-27T10:44:26;8.60;;;6.40;;
67640;SDS011;54434;50.096;20.082;2022-09-27T10:47:21;14.30;;;6.20;;
67640;SDS011;54434;50.096;20.082;2022-09-27T10:50:18;11.20;;;7.30;;
67640;SDS011;54434;50.096;20.082;2022-09-27T10:54:01;10.00;;;6.20;;
67640;SDS011;54434;50.096;20.082;2022-09-27T10:56:40;10.40;;;6.40;;
67640;SDS011;54434;50.096;20.082;2022-09-27T10:59:19;9.20;;;6.30;;
67640;SDS011;54434;50.096;20.082;2022-09-27T11:01:56;9.40;;;6.50;;
67640;SDS011;54434;50.096;20.082;2022-09-27T11:04:39;9.20;;;6.00;;
67640;SDS011;54434;50.096;20.082;2022-09-27T11:07:18;10.70;;;6.50;;
67640;SDS011;54434;50.096;20.082;2022-09-27T11:10:24;9.60;;;7.10;;
67640;SDS011;54434;50.096;20.082;2022-09-27T11:13:13;9.70;;;6.70;;
67640;SDS011;54434;50.096;20.082;2022-09-27T11:16:08;10.90;;;6.90;;
67640;SDS011;54434;50.096;20.082;2022-09-27T11:19:16;9.10;;;6.30;;
67640;SDS011;54434;50.096;20.082;2022-09-27T11:22:18;9.80;;;6.20;;
67640;SDS011;54434;50.096;20.082;2022-09-27T11:25:16;8.90;;;6.20;;
67640;SDS011;54434;50.096;20.082;2022-09-27T11:30:58;8.40;;;6.10;;
67640;SDS011;54434;50.096;20.082;2022-09-27T11:34:18;7.40;;;5.30;;
67640;SDS011;54434;50.096;20.082;2022-09-27T11:37:23;7.20;;;5.30;;
67640;SDS011;54434;50.096;20.082;2022-09-27T11:40:23;7.80;;;5.70;;
67640;SDS011;54434;50.096;20.082;2022-09-27T11:43:38;8.30;;;5.00;;
67640;SDS011;54434;50.096;20.082;2022-09-27T11:46:26;6.60;;;4.60;;
67640;SDS011;54434;50.096;20.082;2022-09-27T11:49:57;6.50;;;4.60;;
67640;SDS011;54434;50.096;20.082;2022-09-27T11:53:07;6.90;;;4.70;;
67640;SDS011;54434;50.096;20.082;2022-09-27T11:56:02;7.40;;;4.90;;
67640;SDS011;54434;50.096;20.082;2022-09-27T11:59:00;7.60;;;4.70;;
67640;SDS011;54434;50.096;20.082;2022-09-27T12:01:52;6.40;;;4.20;;
67640;SDS011;54434;50.096;20.082;2022-09-27T12:04:55;7.20;;;3.70;;
67640;SDS011;54434;50.096;20.082;2022-09-27T12:07:50;5.80;;;3.70;;
67640;SDS011;54434;50.096;20.082;2022-09-27T12:10:40;5.70;;;3.60;;
67640;SDS011;54434;50.096;20.082;2022-09-27T12:13:42;6.00;;;3.60;;
67640;SDS011;54434;50.096;20.082;2022-09-27T12:16:23;5.10;;;3.40;;
67640;SDS011;54434;50.096;20.082;2022-09-27T12:19:02;5.00;;;3.40;;
67640;SDS011;54434;50.096;20.082;2022-09-27T12:22:06;7.70;;;3.30;;
67640;SDS011;54434;50.096;20.082;2022-09-27T12:24:49;4.80;;;3.40;;
67640;SDS011;54434;50.096;20.082;2022-09-27T12:27:51;4.90;;;3.10;;
67640;SDS011;54434;50.096;20.082;2022-09-27T12:30:33;4.50;;;2.70;;
67640;SDS011;54434;50.096;20.082;2022-09-27T12:33:22;4.80;;;3.30;;
67640;SDS011;54434;50.096;20.082;2022-09-27T12:36:07;5.80;;;3.20;;
67640;SDS011;54434;50.096;20.082;2022-09-27T12:38:55;4.80;;;3.00;;
67640;SDS011;54434;50.096;20.082;2022-09-27T12:41:45;5.30;;;3.00;;
67640;SDS011;54434;50.096;20.082;2022-09-27T12:44:39;5.30;;;2.90;;
67640;SDS011;54434;50.096;20.082;2022-09-27T12:47:35;6.40;;;3.00;;
67640;SDS011;54434;50.096;20.082;2022-09-27T12:50:31;4.60;;;3.20;;
67640;SDS011;54434;50.096;20.082;2022-09-27T12:53:19;6.90;;;3.30;;
67640;SDS011;54434;50.096;20.082;2022-09-27T12:56:29;6.30;;;3.00;;
67640;SDS011;54434;50.096;20.082;2022-09-27T12:59:32;5.20;;;3.10;;
67640;SDS011;54434;50.096;20.082;2022-09-27T13:02:50;4.40;;;2.80;;
67640;SDS011;54434;50.096;20.082;2022-09-27T13:06:23;4.30;;;2.90;;
67640;SDS011;54434;50.096;20.082;2022-09-27T13:12:29;5.20;;;2.50;;
67640;SDS011;54434;50.096;20.082;2022-09-27T13:15:15;4.90;;;2.50;;
67640;SDS011;54434;50.096;20.082;2022-09-27T13:17:58;4.30;;;2.50;;
67640;SDS011;54434;50.096;20.082;2022-09-27T13:20:48;4.40;;;2.80;;
67640;SDS011;54434;50.096;20.082;2022-09-27T13:23:53;5.80;;;2.60;;
67640;SDS011;54434;50.096;20.082;2022-09-27T13:26:51;5.20;;;2.40;;
67640;SDS011;54434;50.096;20.082;2022-09-27T13:29:34;4.70;;;2.60;;
67640;SDS011;54434;50.096;20.082;2022-09-27T13:32:25;4.60;;;2.50;;
67640;SDS011;54434;50.096;20.082;2022-09-27T13:35:21;4.80;;;2.80;;
67640;SDS011;54434;50.096;20.082;2022-09-27T13:38:04;5.00;;;2.90;;
67640;SDS011;54434;50.096;20.082;2022-09-27T13:40:54;3.80;;;2.40;;
67640;SDS011;54434;50.096;20.082;2022-09-27T13:44:12;4.30;;;2.60;;
67640;SDS011;54434;50.096;20.082;2022-09-27T13:47:03;4.50;;;3.00;;
67640;SDS011;54434;50.096;20.082;2022-09-27T13:50:03;4.10;;;2.40;;
67640;SDS011;54434;50.096;20.082;2022-09-27T13:53:05;4.70;;;2.70;;
67640;SDS011;54434;50.096;20.082;2022-09-27T13:55:55;4.70;;;2.60;;
67640;SDS011;54434;50.096;20.082;2022-09-27T13:58:47;5.00;;;2.60;;
67640;SDS011;54434;50.096;20.082;2022-09-27T14:01:44;4.30;;;2.80;;
67640;SDS011;54434;50.096;20.082;2022-09-27T14:04:30;5.20;;;2.60;;
67640;SDS011;54434;50.096;20.082;2022-09-27T14:07:15;6.50;;;2.80;;
67640;SDS011;54434;50.096;20.082;2022-09-27T14:09:59;5.30;;;2.60;;
67640;SDS011;54434;50.096;20.082;2022-09-27T14:12:42;4.80;;;2.60;;
67640;SDS011;54434;50.096;20.082;2022-09-27T14:15:24;4.00;;;2.60;;
67640;SDS011;54434;50.096;20.082;2022-09-27T14:18:02;4.30;;;2.90;;
67640;SDS011;54434;50.096;20.082;2022-09-27T14:20:45;5.30;;;2.90;;
67640;SDS011;54434;50.096;20.082;2022-09-27T14:24:30;5.20;;;3.00;;
67640;SDS011;54434;50.096;20.082;2022-09-27T14:27:24;6.30;;;3.40;;
67640;SDS011;54434;50.096;20.082;2022-09-27T14:30:48;4.90;;;3.10;;
67640;SDS011;54434;50.096;20.082;2022-09-27T14:34:12;5.60;;;3.30;;
67640;SDS011;54434;50.096;20.082;2022-09-27T14:36:52;6.20;;;3.10;;
67640;SDS011;54434;50.096;20.082;2022-09-27T14:40:06;5.30;;;3.20;;
67640;SDS011;54434;50.096;20.082;2022-09-27T14:43:00;4.60;;;3.00;;
67640;SDS011;54434;50.096;20.082;2022-09-27T14:45:39;7.40;;;3.60;;
67640;SDS011;54434;50.096;20.082;2022-09-27T14:48:26;5.30;;;3.60;;
67640;SDS011;54434;50.096;20.082;2022-09-27T14:51:15;8.10;;;3.70;;
67640;SDS011;54434;50.096;20.082;2022-09-27T14:53:56;7.80;;;3.20;;
67640;SDS011;54434;50.096;20.082;2022-09-27T14:56:37;9.90;;;3.50;;
67640;SDS011;54434;50.096;20.082;2022-09-27T14:59:18;7.90;;;3.80;;
67640;SDS011;54434;50.096;20.082;2022-09-27T15:02:13;5.40;;;3.30;;
67640;SDS011;54434;50.096;20.082;2022-09-27T15:04:54;4.90;;;3.20;;
67640;SDS011;54434;50.096;20.082;2022-09-27T15:07:31;11.10;;;7.20;;
67640;SDS011;54434;50.096;20.082;2022-09-27T15:10:13;8.70;;;3.20;;
67640;SDS011;54434;50.096;20.082;2022-09-27T15:12:54;7.60;;;3.40;;
67640;SDS011;54434;50.096;20.082;2022-09-27T15:15:35;5.80;;;2.90;;
67640;SDS011;54434;50.096;20.082;2022-09-27T15:18:38;9.30;;;3.60;;
67640;SDS011;54434;50.096;20.082;2022-09-27T15:21:28;9.40;;;3.80;;
67640;SDS011;54434;50.096;20.082;2022-09-27T15:24:32;6.70;;;3.50;;
67640;SDS011;54434;50.096;20.082;2022-09-27T15:27:18;7.40;;;3.90;;
67640;SDS011;54434;50.096;20.082;2022-09-27T15:29:58;8.80;;;3.80;;
67640;SDS011;54434;50.096;20.082;2022-09-27T15:32:35;6.40;;;3.60;;
67640;SDS011;54434;50.096;20.082;2022-09-27T15:35:21;9.90;;;5.40;;
67640;SDS011;54434;50.096;20.082;2022-09-27T15:38:27;10.80;;;4.30;;
67640;SDS011;54434;50.096;20.082;2022-09-27T15:41:15;10.10;;;4.20;;
67640;SDS011;54434;50.096;20.082;2022-09-27T15:43:53;8.30;;;4.70;;
67640;SDS011;54434;50.096;20.082;2022-09-27T15:46:43;8.90;;;4.20;;
67640;SDS011;54434;50.096;20.082;2022-09-27T15:49:31;7.30;;;3.60;;
67640;SDS011;54434;50.096;20.082;2022-09-27T15:52:07;6.90;;;3.30;;
67640;SDS011;54434;50.096;20.082;2022-09-27T15:55:34;6.10;;;3.30;;
67640;SDS011;54434;50.096;20.082;2022-09-27T15:58:19;4.90;;;2.80;;
67640;SDS011;54434;50.096;20.082;2022-09-27T16:00:58;4.40;;;2.70;;
67640;SDS011;54434;50.096;20.082;2022-09-27T16:03:38;5.80;;;2.60;;
67640;SDS011;54434;50.096;20.082;2022-09-27T16:06:19;4.50;;;2.60;;
67640;SDS011;54434;50.096;20.082;2022-09-27T16:09:01;5.70;;;2.80;;
67640;SDS011;54434;50.096;20.082;2022-09-27T16:11:40;6.60;;;3.70;;
67640;SDS011;54434;50.096;20.082;2022-09-27T16:14:17;6.70;;;2.90;;
67640;SDS011;54434;50.096;20.082;2022-09-27T16:16:56;4.80;;;2.80;;
67640;SDS011;54434;50.096;20.082;2022-09-27T16:19:34;4.00;;;2.50;;
67640;SDS011;54434;50.096;20.082;2022-09-27T16:22:12;5.30;;;2.70;;
67640;SDS011;54434;50.096;20.082;2022-09-27T16:24:52;5.20;;;2.90;;
67640;SDS011;54434;50.096;20.082;2022-09-27T16:27:32;4.30;;;2.80;;
67640;SDS011;54434;50.096;20.082;2022-09-27T16:30:17;4.70;;;2.40;;
67640;SDS011;54434;50.096;20.082;2022-09-27T16:32:54;4.20;;;2.20;;
67640;SDS011;54434;50.096;20.082;2022-09-27T16:35:31;4.40;;;2.60;;
67640;SDS011;54434;50.096;20.082;2022-09-27T16:38:15;4.00;;;2.20;;
67640;SDS011;54434;50.096;20.082;2022-09-27T16:40:58;3.80;;;2.10;;
67640;SDS011;54434;50.096;20.082;2022-09-27T16:43:42;5.30;;;2.70;;
67640;SDS011;54434;50.096;20.082;2022-09-27T16:46:26;4.40;;;2.40;;